createdAt,value
2023-03-26T00:01:29.747Z,70.30
2023-03-26T00:03:57.988Z,70.40
2023-03-26T00:06:31.031Z,70.30
2023-03-26T00:08:58.855Z,70.20
2023-03-26T00:11:28.415Z,70.30
2023-03-26T00:13:59.058Z,70.30
2023-03-26T00:16:28.771Z,70.50
2023-03-26T00:18:57.535Z,70.50
2023-03-26T00:21:29.210Z,70.50
2023-03-26T00:24:04.392Z,70.40
2023-03-26T00:26:33.519Z,70.50
2023-03-26T00:29:00.662Z,70.50
2023-03-26T00:31:27.866Z,70.60
2023-03-26T00:33:55.680Z,70.70
2023-03-26T00:36:25.550Z,70.60
2023-03-26T00:38:53.893Z,70.50
2023-03-26T00:41:30.981Z,70.40
2023-03-26T00:43:59.868Z,70.50
2023-03-26T00:46:31.321Z,70.40
2023-03-26T00:49:03.640Z,70.40
2023-03-26T00:51:30.794Z,70.30
2023-03-26T00:53:57.972Z,70.30
2023-03-26T00:56:25.136Z,70.20
2023-03-26T00:58:51.950Z,70.30
2023-03-26T01:01:30.293Z,70.30
2023-03-26T01:04:08.094Z,70.20
2023-03-26T01:06:39.368Z,70.20
2023-03-26T01:09:18.728Z,70.00
2023-03-26T01:11:47.505Z,70.10
2023-03-26T01:14:14.177Z,69.90
2023-03-26T01:16:50.065Z,69.90
2023-03-26T01:19:33.799Z,70.00
2023-03-26T01:22:00.697Z,70.10
2023-03-26T01:24:27.714Z,70.20
2023-03-26T01:27:19.165Z,70.30
2023-03-26T01:29:52.474Z,70.40
2023-03-26T01:32:44.920Z,70.40
2023-03-26T01:35:25.006Z,70.20
2023-03-26T01:38:00.462Z,70.10
2023-03-26T01:40:54.980Z,70.00
2023-03-26T01:43:45.856Z,70.10
2023-03-26T01:46:15.843Z,70.10
2023-03-26T01:48:44.812Z,69.80
2023-03-26T01:51:13.190Z,70.00
2023-03-26T01:53:46.969Z,70.00
2023-03-26T01:56:26.373Z,69.90
2023-03-26T01:58:56.209Z,69.80
2023-03-26T02:01:30.998Z,69.70
2023-03-26T02:04:21.950Z,69.80
2023-03-26T02:07:06.824Z,69.70
2023-03-26T02:09:42.144Z,69.70
2023-03-26T02:12:10.132Z,69.70
2023-03-26T02:14:36.922Z,69.70
2023-03-26T02:17:03.791Z,69.50
2023-03-26T02:19:30.717Z,69.40
2023-03-26T02:22:00.519Z,69.50
2023-03-26T02:24:29.451Z,69.70
2023-03-26T02:26:58.149Z,69.50
2023-03-26T02:29:26.890Z,69.30
2023-03-26T02:31:54.575Z,69.40
2023-03-26T02:34:21.746Z,69.10
2023-03-26T02:36:51.072Z,69.00
2023-03-26T02:39:18.475Z,69.00
2023-03-26T02:41:52.897Z,69.00
2023-03-26T02:44:19.925Z,69.00
2023-03-26T02:47:06.925Z,69.00
2023-03-26T02:49:51.993Z,68.80
2023-03-26T02:52:25.325Z,69.10
2023-03-26T02:54:54.118Z,69.20
2023-03-26T02:57:24.104Z,69.00
2023-03-26T03:00:14.948Z,68.80
2023-03-26T03:02:48.496Z,68.70
2023-03-26T03:05:31.986Z,68.80
2023-03-26T03:08:18.570Z,68.80
2023-03-26T03:11:24.514Z,68.80
2023-03-26T03:13:53.000Z,68.80
2023-03-26T03:16:25.633Z,68.70
2023-03-26T03:18:58.152Z,68.70
2023-03-26T03:21:30.864Z,68.60
2023-03-26T03:24:00.098Z,68.50
2023-03-26T03:26:29.739Z,68.70
2023-03-26T03:28:58.535Z,69.40
2023-03-26T03:31:26.664Z,68.60
2023-03-26T03:33:58.342Z,68.50
2023-03-26T03:36:33.039Z,68.50
2023-03-26T03:39:06.902Z,68.40
2023-03-26T03:41:35.059Z,68.40
2023-03-26T03:44:04.656Z,68.30
2023-03-26T03:46:32.867Z,68.50
2023-03-26T03:48:59.815Z,68.40
2023-03-26T03:51:32.538Z,68.30
2023-03-26T03:54:03.262Z,68.10
2023-03-26T03:57:02.211Z,68.20
2023-03-26T03:59:34.991Z,68.20
2023-03-26T04:02:05.035Z,68.10
2023-03-26T04:04:38.463Z,68.20
2023-03-26T04:07:08.638Z,68.30
2023-03-26T04:10:04.162Z,68.10
2023-03-26T04:12:51.429Z,68.10
2023-03-26T04:15:21.161Z,68.00
2023-03-26T04:17:48.354Z,68.00
2023-03-26T04:20:17.273Z,67.90
2023-03-26T04:22:46.842Z,67.80
2023-03-26T04:25:17.605Z,67.90
2023-03-26T04:27:51.432Z,67.70
2023-03-26T04:30:29.519Z,67.80
2023-03-26T04:33:20.876Z,67.80
2023-03-26T04:35:48.469Z,67.80
2023-03-26T04:38:17.504Z,67.70
2023-03-26T04:40:47.673Z,67.60
2023-03-26T04:43:17.991Z,67.70
2023-03-26T04:46:04.949Z,67.80
2023-03-26T04:48:40.976Z,67.80
2023-03-26T04:51:18.222Z,67.70
2023-03-26T04:53:52.766Z,67.80
2023-03-26T04:56:41.092Z,67.70
2023-03-26T04:59:30.367Z,67.50
2023-03-26T05:02:00.007Z,67.60
2023-03-26T05:04:34.551Z,67.50
2023-03-26T05:07:02.177Z,67.60
2023-03-26T05:09:41.804Z,67.60
2023-03-26T05:12:12.387Z,67.60
2023-03-26T05:14:50.996Z,67.60
2023-03-26T05:17:30.738Z,67.60
2023-03-26T05:19:58.330Z,67.70
2023-03-26T05:22:25.707Z,67.50
2023-03-26T05:25:11.745Z,67.40
2023-03-26T05:27:39.097Z,68.00
2023-03-26T05:30:07.381Z,68.00
2023-03-26T05:32:42.198Z,68.00
2023-03-26T05:35:12.650Z,68.30
2023-03-26T05:37:39.986Z,68.40
2023-03-26T05:40:15.735Z,68.40
2023-03-26T05:43:08.540Z,68.20
2023-03-26T05:45:48.150Z,68.10
2023-03-26T05:48:28.222Z,68.00
2023-03-26T05:50:57.368Z,68.20
2023-03-26T05:53:27.803Z,68.20
2023-03-26T05:56:13.235Z,68.90
2023-03-26T05:58:58.527Z,68.20
2023-03-26T06:01:47.227Z,68.20
2023-03-26T06:04:46.248Z,68.20
2023-03-26T06:07:39.202Z,68.30
2023-03-26T06:10:10.637Z,68.30
2023-03-26T06:12:45.176Z,68.10
2023-03-26T06:15:12.457Z,68.20
2023-03-26T06:17:57.979Z,68.20
2023-03-26T06:20:47.272Z,68.20
2023-03-26T06:23:25.195Z,68.10
2023-03-26T06:26:05.493Z,68.10
2023-03-26T06:28:51.243Z,68.00
2023-03-26T06:31:38.296Z,68.10
2023-03-26T06:34:20.225Z,68.10
2023-03-26T06:36:48.705Z,68.20
2023-03-26T06:39:16.136Z,68.20
2023-03-26T06:41:52.176Z,68.20
2023-03-26T06:44:36.441Z,68.10
2023-03-26T06:47:21.692Z,68.20
2023-03-26T06:50:07.617Z,68.10
2023-03-26T06:52:55.735Z,68.10
2023-03-26T06:55:35.840Z,68.00
2023-03-26T06:58:25.125Z,67.80
2023-03-26T07:01:10.860Z,67.70
2023-03-26T07:03:56.139Z,67.60
2023-03-26T07:06:45.919Z,67.70
2023-03-26T07:09:31.249Z,67.70
2023-03-26T07:12:10.325Z,67.80
2023-03-26T07:15:01.576Z,67.80
2023-03-26T07:17:48.636Z,67.70
2023-03-26T07:20:21.794Z,67.60
2023-03-26T07:22:49.443Z,67.50
2023-03-26T07:25:42.418Z,67.30
2023-03-26T07:28:39.436Z,67.30
2023-03-26T07:31:45.935Z,67.80
2023-03-26T07:34:43.207Z,66.60
2023-03-26T07:37:41.876Z,66.90
2023-03-26T07:40:36.299Z,66.80
2023-03-26T07:43:41.787Z,66.60
2023-03-26T07:46:12.743Z,66.50
2023-03-26T07:48:51.784Z,66.10
2023-03-26T07:51:33.168Z,66.10
2023-03-26T07:54:35.771Z,66.40
2023-03-26T07:57:20.951Z,66.40
2023-03-26T08:00:22.013Z,66.30
2023-03-26T08:03:16.123Z,66.90
2023-03-26T08:06:12.059Z,66.00
2023-03-26T08:09:05.934Z,66.00
2023-03-26T08:11:59.800Z,66.30
2023-03-26T08:14:33.361Z,66.50
2023-03-26T08:17:19.793Z,66.20
2023-03-26T08:20:34.378Z,67.00
2023-03-26T08:23:27.557Z,66.40
2023-03-26T08:26:12.712Z,66.20
2023-03-26T08:28:57.497Z,66.10
2023-03-26T08:31:33.178Z,66.30
2023-03-26T08:34:00.522Z,66.10
2023-03-26T08:36:27.764Z,66.10
2023-03-26T08:38:54.567Z,66.00
2023-03-26T08:41:48.656Z,66.30
2023-03-26T08:44:33.627Z,66.60
2023-03-26T08:47:32.201Z,66.70
2023-03-26T08:50:22.089Z,66.70
2023-03-26T08:53:11.757Z,66.60
2023-03-26T08:55:57.124Z,68.30
2023-03-26T08:58:42.882Z,68.90
2023-03-26T09:01:35.297Z,69.50
2023-03-26T09:04:32.726Z,69.30
2023-03-26T09:07:29.719Z,69.30
2023-03-26T09:10:33.791Z,69.70
2023-03-26T09:13:09.367Z,70.10
2023-03-26T09:15:51.203Z,70.30
2023-03-26T09:18:30.410Z,70.60
2023-03-26T09:21:12.232Z,71.00
2023-03-26T09:23:57.718Z,70.90
2023-03-26T09:26:26.015Z,71.40
2023-03-26T09:29:32.317Z,70.90
2023-03-26T09:32:27.022Z,71.50
2023-03-26T09:35:15.705Z,71.40
2023-03-26T09:38:02.072Z,72.20
2023-03-26T09:40:42.458Z,73.40
2023-03-26T09:43:51.366Z,73.90
2023-03-26T09:46:23.884Z,74.20
2023-03-26T09:49:20.967Z,74.20
2023-03-26T09:51:56.734Z,74.30
2023-03-26T09:54:39.185Z,74.90
2023-03-26T09:57:38.340Z,74.60
2023-03-26T10:00:23.204Z,74.00
2023-03-26T10:03:15.593Z,73.80
2023-03-26T10:05:54.122Z,74.20
2023-03-26T10:08:48.216Z,73.70
2023-03-26T10:11:25.190Z,74.40
2023-03-26T10:14:26.983Z,74.90
2023-03-26T10:17:31.986Z,75.10
2023-03-26T10:20:17.717Z,74.60
2023-03-26T10:22:59.846Z,73.50
2023-03-26T10:25:46.692Z,73.90
2023-03-26T10:28:59.479Z,74.40
2023-03-26T10:31:40.802Z,74.40
2023-03-26T10:34:31.492Z,73.90
2023-03-26T10:37:10.405Z,73.80
2023-03-26T10:40:05.848Z,75.10
2023-03-26T10:43:13.345Z,75.40
2023-03-26T10:46:15.868Z,75.20
2023-03-26T10:49:15.577Z,74.60
2023-03-26T10:51:55.858Z,74.40
2023-03-26T10:54:35.522Z,74.90
2023-03-26T10:57:34.827Z,74.40
2023-03-26T11:00:23.249Z,74.70
2023-03-26T11:03:10.221Z,74.60
2023-03-26T11:06:07.822Z,74.70
2023-03-26T11:09:03.972Z,74.50
2023-03-26T11:11:59.588Z,74.50
2023-03-26T11:14:54.096Z,74.80
2023-03-26T11:17:39.219Z,74.90
2023-03-26T11:20:34.096Z,73.90
2023-03-26T11:23:12.051Z,73.60
2023-03-26T11:26:17.061Z,73.80
2023-03-26T11:29:31.417Z,74.40
2023-03-26T11:32:30.456Z,74.90
2023-03-26T11:35:08.127Z,75.40
2023-03-26T11:37:41.548Z,74.60
2023-03-26T11:40:24.281Z,74.00
2023-03-26T11:42:56.807Z,74.40
2023-03-26T11:45:27.148Z,73.90
2023-03-26T11:48:10.601Z,73.70
2023-03-26T11:50:47.720Z,73.50
2023-03-26T11:53:17.744Z,74.30
2023-03-26T11:55:51.264Z,73.30
2023-03-26T11:58:53.608Z,73.40
2023-03-26T12:01:30.360Z,74.50
2023-03-26T12:04:13.521Z,74.60
2023-03-26T12:06:57.858Z,73.80
2023-03-26T12:09:25.896Z,73.90
2023-03-26T12:11:59.638Z,74.30
2023-03-26T12:14:30.188Z,74.40
2023-03-26T12:17:02.888Z,73.30
2023-03-26T12:19:40.290Z,73.50
2023-03-26T12:22:29.430Z,74.20
2023-03-26T12:25:16.068Z,73.80
2023-03-26T12:27:52.720Z,74.10
2023-03-26T12:30:37.868Z,74.30
2023-03-26T12:33:26.255Z,73.70
2023-03-26T12:35:56.196Z,73.70
2023-03-26T12:38:35.655Z,73.50
2023-03-26T12:44:43.078Z,74.50
2023-03-26T12:44:54.324Z,73.70
2023-03-26T12:47:56.162Z,73.40
2023-03-26T12:50:14.512Z,71.80
2023-03-26T12:52:52.245Z,71.10
2023-03-26T12:55:42.183Z,71.60
2023-03-26T12:58:17.794Z,71.50
2023-03-26T13:01:07.316Z,70.60
2023-03-26T13:03:51.176Z,68.10
2023-03-26T13:06:48.565Z,68.40
2023-03-26T13:09:36.588Z,69.50
2023-03-26T13:12:09.000Z,67.30
2023-03-26T13:14:47.562Z,66.10
2023-03-26T13:17:34.432Z,67.70
2023-03-26T13:20:22.308Z,68.50
2023-03-26T13:22:54.111Z,69.40
2023-03-26T13:25:32.421Z,69.40
2023-03-26T13:28:18.950Z,67.20
2023-03-26T13:30:55.110Z,64.10
2023-03-26T13:33:22.065Z,62.20
2023-03-26T13:36:00.246Z,62.50
2023-03-26T13:39:13.444Z,63.40
2023-03-26T13:42:08.497Z,61.30
2023-03-26T13:44:48.066Z,60.40
2023-03-26T13:47:24.058Z,58.10
2023-03-26T13:50:31.490Z,59.40
2023-03-26T13:53:17.866Z,62.20
2023-03-26T13:55:54.339Z,59.90
2023-03-26T13:58:47.347Z,59.00
2023-03-26T14:01:19.409Z,56.90
2023-03-26T14:03:55.397Z,52.80
2023-03-26T14:06:31.860Z,55.10
2023-03-26T14:09:05.436Z,53.10
2023-03-26T14:11:50.343Z,55.20
2023-03-26T14:14:26.513Z,57.70
2023-03-26T14:17:03.515Z,54.80
2023-03-26T14:20:09.861Z,55.60
2023-03-26T14:22:55.573Z,56.70
2023-03-26T14:25:22.239Z,55.80
2023-03-26T14:28:16.129Z,56.30
2023-03-26T14:31:03.649Z,53.70
2023-03-26T14:33:43.701Z,53.30
2023-03-26T14:36:35.844Z,53.40
2023-03-26T14:39:30.543Z,54.20
2023-03-26T14:42:17.794Z,53.40
2023-03-26T14:45:26.827Z,53.80
2023-03-26T14:48:09.920Z,51.60
2023-03-26T14:50:46.661Z,52.70
2023-03-26T14:53:25.517Z,50.00
2023-03-26T14:56:11.662Z,50.10
2023-03-26T14:59:11.150Z,51.00
2023-03-26T15:02:09.397Z,50.80
2023-03-26T15:04:54.374Z,49.80
2023-03-26T15:07:48.989Z,50.40
2023-03-26T15:10:47.090Z,49.10
2023-03-26T15:13:51.698Z,49.40
2023-03-26T15:16:56.308Z,49.90
2023-03-26T15:19:56.292Z,48.70
2023-03-26T15:22:41.905Z,49.30
2023-03-26T15:25:36.515Z,49.30
2023-03-26T15:28:31.761Z,49.30
2023-03-26T15:31:09.678Z,48.40
2023-03-26T15:33:54.491Z,48.80
2023-03-26T15:37:17.616Z,48.20
2023-03-26T15:40:21.992Z,48.90
2023-03-26T15:42:51.517Z,47.80
2023-03-26T15:45:57.354Z,47.90
2023-03-26T15:48:45.550Z,48.50
2023-03-26T15:51:47.105Z,47.20
2023-03-26T15:54:25.245Z,45.70
2023-03-26T15:57:07.220Z,46.20
2023-03-26T15:59:55.976Z,46.50
2023-03-26T16:02:54.552Z,46.50
2023-03-26T16:05:35.473Z,46.80
2023-03-26T16:08:14.722Z,47.80
2023-03-26T16:10:58.790Z,48.00
2023-03-26T16:13:40.147Z,45.70
2023-03-26T16:16:16.061Z,46.70
2023-03-26T16:18:59.449Z,46.10
2023-03-26T16:21:34.282Z,44.70
2023-03-26T16:24:07.260Z,45.60
2023-03-26T16:26:55.386Z,46.40
2023-03-26T16:29:28.610Z,46.80
2023-03-26T16:32:11.180Z,46.30
2023-03-26T16:34:58.342Z,46.70
2023-03-26T16:37:51.664Z,46.40
2023-03-26T16:40:18.614Z,43.70
2023-03-26T16:43:03.279Z,44.90
2023-03-26T16:45:49.540Z,43.90
2023-03-26T16:48:34.219Z,45.40
2023-03-26T16:51:19.644Z,46.10
2023-03-26T16:54:09.466Z,46.70
2023-03-26T16:57:11.272Z,44.30
2023-03-26T17:00:05.753Z,43.80
2023-03-26T17:02:47.934Z,43.60
2023-03-26T17:05:37.290Z,44.00
2023-03-26T17:08:17.817Z,43.80
2023-03-26T17:11:19.579Z,44.80
2023-03-26T17:14:03.490Z,44.00
2023-03-26T17:16:39.120Z,42.30
2023-03-26T17:19:41.829Z,44.10
2023-03-26T17:22:33.754Z,43.00
2023-03-26T17:25:32.333Z,42.40
2023-03-26T17:28:22.643Z,43.60
2023-03-26T17:31:18.632Z,44.40
2023-03-26T17:33:45.662Z,43.20
2023-03-26T17:36:12.525Z,41.40
2023-03-26T17:38:39.433Z,41.60
2023-03-26T17:41:08.180Z,43.00
2023-03-26T17:43:52.124Z,43.00
2023-03-26T17:46:40.557Z,42.80
2023-03-26T17:49:13.804Z,43.70
2023-03-26T17:52:05.203Z,43.00
2023-03-26T17:54:45.278Z,44.40
2023-03-26T17:57:26.929Z,44.10
2023-03-26T17:59:58.578Z,43.30
2023-03-26T18:03:11.142Z,42.70
2023-03-26T18:05:39.515Z,43.10
2023-03-26T18:08:32.074Z,43.50
2023-03-26T18:11:20.576Z,42.70
2023-03-26T18:14:34.437Z,41.40
2023-03-26T18:17:02.195Z,41.70
2023-03-26T18:19:29.336Z,42.30
2023-03-26T18:22:05.306Z,43.10
2023-03-26T18:24:40.229Z,42.30
2023-03-26T18:27:28.955Z,42.40
2023-03-26T18:30:03.130Z,43.40
2023-03-26T18:32:33.533Z,43.70
2023-03-26T18:35:13.528Z,43.20
2023-03-26T18:37:44.041Z,42.30
2023-03-26T18:40:18.901Z,41.20
2023-03-26T18:42:55.714Z,42.30
2023-03-26T18:45:34.244Z,42.90
2023-03-26T18:48:04.802Z,41.30
2023-03-26T18:50:38.794Z,40.80
2023-03-26T18:53:08.803Z,41.40
2023-03-26T18:55:39.567Z,41.50
2023-03-26T18:58:28.329Z,42.30
2023-03-26T19:00:59.430Z,42.50
2023-03-26T19:03:28.688Z,42.60
2023-03-26T19:05:57.066Z,42.60
2023-03-26T19:08:25.379Z,43.00
2023-03-26T19:10:54.456Z,43.30
2023-03-26T19:13:21.699Z,42.90
2023-03-26T19:15:51.868Z,42.50
2023-03-26T19:18:28.233Z,42.60
2023-03-26T19:20:58.808Z,43.40
2023-03-26T19:23:31.729Z,43.60
2023-03-26T19:26:01.698Z,43.60
2023-03-26T19:28:41.731Z,43.90
2023-03-26T19:31:29.267Z,44.20
2023-03-26T19:34:17.667Z,44.00
2023-03-26T19:36:59.411Z,44.00
2023-03-26T19:39:38.691Z,44.00
2023-03-26T19:42:06.761Z,43.80
2023-03-26T19:44:39.443Z,44.10
2023-03-26T19:47:16.097Z,44.40
2023-03-26T19:49:56.093Z,44.40
2023-03-26T19:52:32.865Z,44.90
2023-03-26T19:55:02.691Z,44.70
2023-03-26T19:57:31.926Z,44.70
2023-03-26T19:59:59.832Z,44.40
2023-03-26T20:02:27.532Z,44.90
2023-03-26T20:04:54.429Z,44.90
2023-03-26T20:07:35.949Z,44.90
2023-03-26T20:10:05.606Z,44.50
2023-03-26T20:12:32.905Z,44.10
2023-03-26T20:15:00.698Z,44.50
2023-03-26T20:17:30.966Z,44.60
2023-03-26T20:19:57.884Z,44.60
2023-03-26T20:22:25.152Z,44.30
2023-03-26T20:24:52.066Z,44.60
2023-03-26T20:27:19.308Z,44.10
2023-03-26T20:29:46.466Z,44.00
2023-03-26T20:32:23.614Z,43.70
2023-03-26T20:34:52.237Z,43.60
2023-03-26T20:37:20.054Z,43.30
2023-03-26T20:39:46.870Z,43.50
2023-03-26T20:42:15.805Z,43.70
2023-03-26T20:44:43.082Z,43.30
2023-03-26T20:47:11.347Z,43.50
2023-03-26T20:49:38.401Z,43.70
2023-03-26T20:52:05.352Z,43.60
2023-03-26T20:54:32.187Z,43.60
2023-03-26T20:56:58.953Z,44.00
2023-03-26T20:59:27.580Z,44.20
2023-03-26T21:01:56.997Z,44.40
2023-03-26T21:04:24.809Z,44.40
2023-03-26T21:06:53.351Z,44.50
2023-03-26T21:09:24.108Z,44.50
2023-03-26T21:11:56.989Z,44.70
2023-03-26T21:14:43.812Z,44.80
2023-03-26T21:17:19.983Z,45.20
2023-03-26T21:19:47.646Z,45.40
2023-03-26T21:22:44.731Z,45.50
2023-03-26T21:25:32.012Z,45.60
2023-03-26T21:28:39.447Z,45.80
2023-03-26T21:31:18.463Z,46.00
2023-03-26T21:33:46.508Z,46.30
2023-03-26T21:36:14.188Z,47.30
2023-03-26T21:38:45.473Z,46.70
2023-03-26T21:41:24.300Z,46.70
2023-03-26T21:43:51.706Z,46.70
2023-03-26T21:46:19.300Z,46.90
2023-03-26T21:48:46.314Z,46.90
2023-03-26T21:51:14.862Z,47.00
2023-03-26T21:53:42.906Z,47.00
2023-03-26T21:56:38.136Z,47.00
2023-03-26T21:59:23.647Z,47.10
2023-03-26T22:02:09.229Z,47.10
2023-03-26T22:05:02.127Z,47.20
2023-03-26T22:07:52.175Z,47.10
2023-03-26T22:10:19.261Z,47.10
2023-03-26T22:12:46.103Z,47.00
2023-03-26T22:15:13.865Z,47.00
2023-03-26T22:17:41.941Z,47.10
2023-03-26T22:20:10.618Z,46.70
2023-03-26T22:22:37.396Z,46.60
2023-03-26T22:25:05.402Z,46.60
2023-03-26T22:27:32.232Z,46.80
2023-03-26T22:30:11.701Z,46.90
2023-03-26T22:32:38.878Z,46.90
2023-03-26T22:35:06.941Z,46.50
2023-03-26T22:37:35.531Z,46.50
2023-03-26T22:40:04.388Z,46.40
2023-03-26T22:42:31.488Z,46.80
2023-03-26T22:44:58.199Z,46.80
2023-03-26T22:47:25.026Z,47.00
2023-03-26T22:49:51.904Z,47.10
2023-03-26T22:52:18.659Z,47.30
2023-03-26T22:54:45.409Z,47.40
2023-03-26T22:57:12.485Z,47.80
2023-03-26T22:59:39.200Z,48.00
2023-03-26T23:02:07.200Z,48.20
2023-03-26T23:04:34.019Z,48.50
2023-03-26T23:07:00.872Z,48.70
2023-03-26T23:09:27.660Z,48.80
2023-03-26T23:11:54.415Z,49.00
2023-03-26T23:14:21.761Z,49.30
2023-03-26T23:16:48.659Z,49.60
2023-03-26T23:19:15.772Z,49.80
2023-03-26T23:21:42.522Z,49.90
2023-03-26T23:24:09.408Z,49.90
2023-03-26T23:26:49.601Z,49.70
2023-03-26T23:29:18.310Z,49.60
2023-03-26T23:31:45.091Z,49.40
2023-03-26T23:34:13.537Z,49.30
2023-03-26T23:36:41.686Z,49.40
2023-03-26T23:39:10.774Z,49.50
2023-03-26T23:41:38.225Z,49.60
2023-03-26T23:44:05.099Z,49.70
2023-03-26T23:46:34.745Z,49.80
2023-03-26T23:49:04.374Z,49.80
2023-03-26T23:51:32.582Z,49.90
2023-03-26T23:54:00.279Z,49.90
2023-03-26T23:56:30.379Z,50.10
2023-03-26T23:58:58.090Z,50.40
